Nearby METAR Reports

 

KSJC - San Jose, California, USA
Distance from station: NE 14km
Updated: 18/11/2017 23:33
Few Clouds
Few Clouds
 Wind from SSE
Wind: SSE 6 km/h
Temperature: 6°C
Dew Point: 4°C
Humidity: 87%
Barometer: 1023 hPa
Clouds: Few Clouds
Visibility: 16 km
Cloud details: Few Clouds 30 m
2017/11/18 13:33 KSJC 181333Z 15003KT 10SM FEW001 06/04 A3021 RMK AO2 T00560039
KNUQ - Moffett Nas/Mtn, California, USA
Distance from station: N 14km
Updated: 18/11/2017 22:56
Clear
Clear
 Wind from E
Wind: E 7 km/h
Temperature: 4°C
Wind Chill: 2°C
Dew Point: 3°C
Humidity: 93%
Barometer: 1023.4 hPa
Clouds: Clear
Visibility: 16 km
2017/11/18 12:56 KNUQ 181256Z 10004KT 10SM CLR 04/03 A3022 RMK AO2 SLP235 T00440028
KPAO - Palo Alto, California, USA
Distance from station: NNW 23km
Updated: 18/11/2017 14:47
NOT Current
Clear
Clear
 Wind from calm
Wind: Calm
Temperature: 9°C
Dew Point: 7°C
Humidity: 87%
Barometer: 1023 hPa
Clouds: Clear
Visibility: 16 km
2017/11/18 04:47 KPAO 180447Z 00000KT 10SM SKC 09/07 A3021
 
KRHV - San Jose/Reid, California, USA
Distance from station: ENE 19km
Updated: 18/11/2017 15:47
NOT Current
Clear
Clear
 Wind from calm
Wind: Calm
Temperature: 9°C
Dew Point: 6°C
Humidity: 82%
Barometer: 1022.4 hPa
Clouds: Clear
Visibility: 16 km
2017/11/18 05:47 KRHV 180547Z 00000KT 10SM SKC 09/06 A3019 RMK LAST
KOAK - Oakland, California, USA
Distance from station: NNW 50km
Updated: 18/11/2017 22:53
Clear
Clear
 Wind from ENE
Wind: ENE 7 km/h
Temperature: 4°C
Wind Chill: 2°C
Dew Point: 3°C
Humidity: 93%
Barometer: 1023 hPa
Clouds: Clear
Visibility: 16 km
2017/11/18 12:53 KOAK 181253Z 07004KT 10SM CLR 04/03 A3021 RMK AO2 SLP230 T00440028
KSQL - San Carlos Airpo, California, USA
Distance from station: NW 34km
Updated: 18/11/2017 23:15
Clear
Clear
 Wind from calm
Wind: Calm
Temperature: 6°C
Dew Point: 3°C
Humidity: 81%
Barometer: 1023.4 hPa
Clouds: Clear
Visibility: 16 km
2017/11/18 13:15 KSQL 181315Z AUTO 00000KT 10SM CLR 06/03 A3022 RMK AO2
 
KSFO - San Francisco, California, USA
Distance from station: NW 49km
Updated: 18/11/2017 22:56
Clear
Clear
 Wind from SW
Wind: SW 7 km/h
Temperature: 7°C
Wind Chill: 6°C
Dew Point: 3°C
Humidity: 76%
Barometer: 1023 hPa
Clouds: Clear
Visibility: 16 km
2017/11/18 12:56 KSFO 181256Z 22004KT 10SM CLR 07/03 A3021 RMK AO2 SLP230 T00670028
KE16 - San Martin, California, USA
Distance from station: ESE 43km
Updated: 18/11/2017 23:15
Clear
Clear
 Wind from calm
Wind: Calm
Temperature: 3°C
Dew Point: 2°C
Humidity: 93%
Barometer: 1023.7 hPa
Clouds: Clear
Visibility: 16 km
2017/11/18 13:15 KE16 181315Z AUTO 00000KT 10SM CLR 03/02 A3023 RMK AO2 PWINO PNO
KWVI - Watsonville, California, USA
Distance from station: SSE 44km
Updated: 18/11/2017 22:53
Clear
Clear
 Wind from NNW
Wind: NNW 6 km/h
Temperature: 4°C
Dew Point: 4°C
Humidity: 100%
Barometer: 1022.4 hPa
Clouds: Clear
Visibility: 16 km
2017/11/18 12:53 KWVI 181253Z AUTO 33003KT 10SM CLR 04/04 A3019 RMK AO2 SLP223 T00390039
 
KHAF - Half Moon Bay, California, USA
Distance from station: WNW 50km
Updated: 18/11/2017 23:10
Clear
Clear
 Wind from calm
Wind: Calm
Temperature: 5°C
Dew Point: 2°C
Humidity: 81%
Barometer: 1021.7 hPa
Clouds: Clear
Visibility: 16 km
2017/11/18 13:10 KHAF 181310Z AUTO 00000KT 10SM CLR 05/02 A3017 RMK AO2
KHWD - Hayward, California, USA
Distance from station: N 44km
Updated: 18/11/2017 22:54
Clear
Clear
 Wind from ENE
Wind: ENE 6 km/h
Temperature: 7°C
Dew Point: 1°C
Humidity: 66%
Barometer: 1023 hPa
Clouds: Clear
Visibility: 16 km
2017/11/18 12:54 KHWD 181254Z 07003KT 10SM CLR 07/01 A3021 RMK AO2 SLP241 T00670006
KLVK - Livermore, California, USA
Distance from station: NNE 51km
Updated: 18/11/2017 22:53
Clear
Clear
 Wind from calm
Wind: Calm
Temperature: 4°C
Dew Point: 2°C
Humidity: 87%
Barometer: 1023 hPa
Clouds: Clear
Visibility: 16 km
2017/11/18 12:53 KLVK 181253Z 00000KT 10SM CLR 04/02 A3021 RMK AO2 SLP230 T00440017